Time;durP1;ratioP1;P1;durP2;ratioP2;P2;SDS_P1;SDS_P2;PMS_P1;PMS_P2;Temp;Humidity;BMP_temperature;BMP_pressure;BME280_temperature;BME280_humidity;BME280_pressure;Samples;Min_cycle;Max_cycle;Signal;HPM_P1;HPM_P2
2023/04/11 00:00:42;;;;;;;21.40;13.80;;;;;;;7.46;100.00;100087.20;107864;1275;23289;-68
2023/04/11 00:03:11;;;;;;;17.00;13.80;;;;;;;7.45;100.00;100086.47;110278;1275;22974;-68
2023/04/11 00:05:39;;;;;;;22.50;15.30;;;;;;;7.41;100.00;100081.23;110284;1275;22729;-68
2023/04/11 00:08:08;;;;;;;19.40;14.00;;;;;;;7.45;100.00;100084.95;110341;1276;23099;-68
2023/04/11 00:10:36;;;;;;;23.40;15.20;;;;;;;7.47;100.00;100080.77;110290;1270;22430;-69
2023/04/11 00:13:06;;;;;;;19.40;13.50;;;;;;;7.45;100.00;100079.69;110338;1275;22210;-68
2023/04/11 00:15:40;;;;;;;18.90;14.20;;;;;;;7.48;100.00;100079.06;110323;1275;23187;-68
2023/04/11 00:18:11;;;;;;;20.90;14.90;;;;;;;7.51;100.00;100079.63;110390;1276;22407;-68
2023/04/11 00:20:39;;;;;;;19.50;14.10;;;;;;;7.48;100.00;100077.06;110278;1276;22424;-68
2023/04/11 00:23:07;;;;;;;21.20;13.90;;;;;;;7.51;100.00;100070.16;110307;1275;22755;-68
2023/04/11 00:25:36;;;;;;;19.20;14.70;;;;;;;7.49;100.00;100069.27;110243;1275;22952;-68
2023/04/11 00:28:05;;;;;;;20.60;15.00;;;;;;;7.41;100.00;100069.71;110306;1275;22497;-68
2023/04/11 00:30:34;;;;;;;21.00;14.10;;;;;;;7.41;100.00;100065.30;110323;1271;22864;-68
2023/04/11 00:33:03;;;;;;;19.40;14.30;;;;;;;7.38;100.00;100069.13;110359;1271;22225;-68
2023/04/11 00:35:33;;;;;;;17.80;13.50;;;;;;;7.28;100.00;100065.77;110308;1276;23033;-68
2023/04/11 00:38:02;;;;;;;22.20;13.90;;;;;;;7.20;100.00;100066.21;110237;1275;22270;-68
2023/04/11 00:40:31;;;;;;;20.20;14.90;;;;;;;7.13;100.00;100065.56;110330;1276;22939;-68
2023/04/11 00:43:19;;;;;;;24.40;14.80;;;;;;;7.06;100.00;100066.75;110262;1275;22420;-68
2023/04/11 00:45:47;;;;;;;20.20;14.10;;;;;;;7.08;100.00;100067.81;110250;1275;22430;-68
2023/04/11 00:48:16;;;;;;;27.40;15.00;;;;;;;7.05;100.00;100069.83;110300;1272;22469;-68
2023/04/11 00:50:48;;;;;;;22.40;15.20;;;;;;;6.98;100.00;100068.92;110361;1275;23043;-68
2023/04/11 00:53:17;;;;;;;21.60;14.60;;;;;;;6.96;100.00;100068.02;110282;1275;22348;-68
2023/04/11 00:55:46;;;;;;;19.60;14.70;;;;;;;6.95;100.00;100064.91;110274;1272;23290;-67
2023/04/11 00:58:15;;;;;;;19.90;14.50;;;;;;;6.88;100.00;100060.89;110188;1269;23299;-68
2023/04/11 01:00:43;;;;;;;20.50;15.50;;;;;;;6.84;100.00;100056.52;110326;1275;22214;-68
2023/04/11 01:03:13;;;;;;;20.30;14.30;;;;;;;6.74;100.00;100061.18;110333;1272;22259;-68
2023/04/11 01:05:42;;;;;;;16.30;14.10;;;;;;;6.59;100.00;100060.70;110323;1275;22494;-68
2023/04/11 01:08:12;;;;;;;19.70;14.40;;;;;;;6.39;100.00;100060.06;110176;1276;22277;-68
2023/04/11 01:10:40;;;;;;;21.00;14.60;;;;;;;6.18;100.00;100059.78;110188;1275;22203;-68
2023/04/11 01:13:09;;;;;;;19.60;14.10;;;;;;;6.08;100.00;100061.05;110408;1271;22220;-68
2023/04/11 01:15:47;;;;;;;17.60;13.20;;;;;;;5.99;100.00;100057.06;110227;1275;22232;-68
2023/04/11 01:18:17;;;;;;;17.20;13.20;;;;;;;5.87;100.00;100061.90;110343;1275;23121;-68
2023/04/11 01:20:45;;;;;;;26.10;15.40;;;;;;;5.74;100.00;100065.66;109134;1275;25078;-68
2023/04/11 01:23:24;;;;;;;19.80;15.20;;;;;;;5.72;100.00;100059.85;107485;1275;25424;-68
2023/04/11 01:25:52;;;;;;;20.90;15.50;;;;;;;5.75;100.00;100059.70;107472;1270;25349;-68
2023/04/11 01:28:21;;;;;;;20.40;15.00;;;;;;;5.81;100.00;100059.08;107420;1275;22878;-68
2023/04/11 01:30:50;;;;;;;24.00;15.10;;;;;;;5.79;100.00;100061.26;107612;1271;23169;-68
2023/04/11 01:33:18;;;;;;;19.70;15.40;;;;;;;5.85;100.00;100064.75;107589;1275;25472;-69
2023/04/11 01:35:48;;;;;;;22.00;15.30;;;;;;;5.91;100.00;100065.13;110376;1275;23266;-69
2023/04/11 01:38:16;;;;;;;27.10;16.70;;;;;;;5.94;100.00;100067.81;110385;1275;22278;-69
2023/04/11 01:40:44;;;;;;;24.00;16.10;;;;;;;5.94;100.00;100063.88;110431;1275;22916;-68
2023/04/11 01:43:13;;;;;;;20.60;15.10;;;;;;;5.98;100.00;100070.13;110334;1275;22189;-69
2023/04/11 01:45:42;;;;;;;19.30;14.80;;;;;;;6.00;100.00;100065.56;110275;1275;22429;-69
2023/04/11 01:48:10;;;;;;;21.90;16.50;;;;;;;5.91;100.00;100071.20;110385;1275;23190;-69
2023/04/11 01:50:39;;;;;;;21.90;16.10;;;;;;;5.84;100.00;100065.55;110387;1275;22509;-68
2023/04/11 01:53:07;;;;;;;22.00;16.00;;;;;;;5.80;100.00;100061.22;110325;1275;22242;-69
2023/04/11 01:55:36;;;;;;;24.60;16.80;;;;;;;5.71;100.00;100059.03;110327;1275;22922;-69
2023/04/11 01:58:04;;;;;;;24.90;16.60;;;;;;;5.60;100.00;100051.46;110324;1275;22528;-68
2023/04/11 02:00:35;;;;;;;22.10;16.20;;;;;;;5.60;100.00;100052.35;110267;1269;22492;-69
2023/04/11 02:03:05;;;;;;;25.20;17.00;;;;;;;5.60;100.00;100050.17;107763;1260;25508;-68
2023/04/11 02:05:36;;;;;;;22.10;16.00;;;;;;;5.52;100.00;100047.93;107296;1269;22527;-68
2023/04/11 02:08:07;;;;;;;21.10;15.50;;;;;;;5.47;100.00;100046.52;107466;1270;23363;-68
2023/04/11 02:10:36;;;;;;;23.60;17.00;;;;;;;5.44;100.00;100048.05;107561;1275;25470;-68
2023/04/11 02:13:04;;;;;;;23.40;17.00;;;;;;;5.40;100.00;100046.01;107509;1275;22642;-67
2023/04/11 02:15:41;;;;;;;24.60;16.90;;;;;;;5.34;100.00;100044.55;107481;1275;25794;-67
2023/04/11 02:18:10;;;;;;;21.80;16.30;;;;;;;5.28;100.00;100048.55;107402;1275;22633;-68
2023/04/11 02:20:41;;;;;;;22.90;17.00;;;;;;;5.23;100.00;100046.73;107418;1269;25312;-68
2023/04/11 02:23:15;;;;;;;25.50;17.40;;;;;;;5.14;100.00;100052.06;107356;1275;25382;-67
2023/04/11 02:25:43;;;;;;;21.40;16.60;;;;;;;5.10;100.00;100054.38;107531;1275;22562;-68
2023/04/11 02:28:11;;;;;;;23.70;16.80;;;;;;;5.07;100.00;100050.13;107569;1270;27008;-68
2023/04/11 02:30:40;;;;;;;24.40;17.50;;;;;;;5.00;100.00;100052.20;107569;1275;25352;-68
2023/04/11 02:33:09;;;;;;;24.10;17.30;;;;;;;4.95;100.00;100048.67;107558;1275;25319;-68
2023/04/11 02:35:37;;;;;;;25.10;18.40;;;;;;;4.97;100.00;100050.63;107619;1275;22533;-68
2023/04/11 02:38:07;;;;;;;25.10;17.90;;;;;;;4.94;100.00;100043.41;107425;1275;23011;-69
2023/04/11 02:40:36;;;;;;;22.80;17.00;;;;;;;4.96;100.00;100049.19;107442;1270;22904;-68
2023/04/11 02:43:10;;;;;;;20.60;16.20;;;;;;;4.99;100.00;100046.46;107497;1275;23712;-68
2023/04/11 02:45:40;;;;;;;24.60;16.80;;;;;;;5.00;100.00;100046.61;107368;1273;25221;-68
2023/04/11 02:48:08;;;;;;;22.10;15.80;;;;;;;5.01;100.00;100044.69;107553;1270;24936;-68
2023/04/11 02:50:42;;;;;;;21.10;15.70;;;;;;;5.03;100.00;100045.00;107452;1269;26962;-67
2023/04/11 02:53:11;;;;;;;25.10;17.10;;;;;;;5.01;100.00;100040.91;110286;1275;22947;-68
2023/04/11 02:55:48;;;;;;;21.30;15.50;;;;;;;5.07;100.00;100038.92;110343;1275;21999;-70
2023/04/11 02:58:18;;;;;;;22.10;16.60;;;;;;;5.15;100.00;100042.84;110388;1275;22295;-68
2023/04/11 03:00:48;;;;;;;24.90;16.70;;;;;;;5.17;100.00;100038.36;110388;1275;23492;-69
2023/04/11 03:03:25;;;;;;;22.10;15.80;;;;;;;5.19;100.00;100034.92;110316;1275;22412;-69
2023/04/11 03:05:55;;;;;;;23.10;16.70;;;;;;;5.23;100.00;100030.77;110295;1275;22393;-68
2023/04/11 03:08:24;;;;;;;21.40;17.20;;;;;;;5.20;100.00;100033.30;110303;1269;22394;-68
2023/04/11 03:10:54;;;;;;;24.40;16.50;;;;;;;5.09;100.00;100032.55;110368;1275;22263;-68
2023/04/11 03:13:27;;;;;;;25.60;16.60;;;;;;;5.10;100.00;100029.80;110300;1275;22263;-68
2023/04/11 03:15:55;;;;;;;23.90;18.00;;;;;;;5.11;100.00;100032.55;110451;1253;22824;-68
2023/04/11 03:18:26;;;;;;;26.70;16.90;;;;;;;5.10;100.00;100028.67;110334;1275;22220;-68
2023/04/11 03:20:55;;;;;;;20.80;16.90;;;;;;;5.11;100.00;100030.15;110351;1275;23074;-68
2023/04/11 03:23:30;;;;;;;24.00;17.90;;;;;;;5.12;100.00;100031.80;110382;1275;22199;-68
2023/04/11 03:25:59;;;;;;;28.50;18.30;;;;;;;5.12;100.00;100028.77;110400;1269;22295;-68
2023/04/11 03:28:28;;;;;;;26.60;19.10;;;;;;;5.18;100.00;100028.55;110340;1275;22271;-68
2023/04/11 03:30:56;;;;;;;26.10;17.50;;;;;;;5.18;100.00;100025.55;110373;1275;22328;-68
2023/04/11 03:33:25;;;;;;;24.20;17.50;;;;;;;5.21;100.00;100028.71;110387;1275;22927;-68
2023/04/11 03:35:53;;;;;;;24.80;18.70;;;;;;;5.27;100.00;100032.00;110387;1275;22385;-68
2023/04/11 03:38:23;;;;;;;34.10;21.60;;;;;;;5.25;100.00;100033.52;110363;1275;22932;-68
2023/04/11 03:40:52;;;;;;;22.80;17.30;;;;;;;5.25;100.00;100030.91;110309;1275;22469;-68
2023/04/11 03:43:23;;;;;;;23.50;17.90;;;;;;;5.24;100.00;100028.96;110312;1275;22918;-68
2023/04/11 03:45:52;;;;;;;26.30;18.30;;;;;;;5.25;100.00;100027.91;110278;1275;22358;-68
2023/04/11 03:48:40;;;;;;;26.80;18.30;;;;;;;5.30;100.00;100029.29;110386;1275;22278;-68
2023/04/11 03:51:09;;;;;;;34.00;22.60;;;;;;;5.28;100.00;100027.00;110316;1275;22265;-69
2023/04/11 03:53:43;;;;;;;28.30;19.40;;;;;;;5.27;100.00;100032.27;110136;1268;23037;-68
2023/04/11 03:56:27;;;;;;;24.30;17.70;;;;;;;5.31;100.00;100025.20;108561;1273;22971;-68
2023/04/11 03:58:56;;;;;;;25.90;18.40;;;;;;;5.32;100.00;100023.08;107499;1272;22608;-68
2023/04/11 04:01:28;;;;;;;21.30;15.40;;;;;;;5.42;100.00;100026.08;107724;1269;23262;-69
2023/04/11 04:04:00;;;;;;;24.40;17.90;;;;;;;5.52;100.00;100025.63;110305;1275;23175;-68
2023/04/11 04:06:30;;;;;;;25.10;16.60;;;;;;;5.59;100.00;100025.41;107800;1272;22758;-69
2023/04/11 04:09:00;;;;;;;23.80;16.50;;;;;;;5.74;100.00;100019.91;107663;1273;22558;-68
2023/04/11 04:11:33;;;;;;;19.20;15.60;;;;;;;5.89;100.00;100017.27;107593;1268;25288;-68
2023/04/11 04:14:03;;;;;;;20.10;15.60;;;;;;;6.04;100.00;100017.55;107839;1268;26103;-68
2023/04/11 04:16:32;;;;;;;22.00;15.30;;;;;;;6.19;100.00;100014.87;107806;1270;23266;-68
2023/04/11 04:19:01;;;;;;;20.10;14.20;;;;;;;6.31;100.00;100010.27;107699;1273;26115;-68
2023/04/11 04:21:38;;;;;;;22.60;14.20;;;;;;;6.51;100.00;100011.84;107376;1275;22575;-68
2023/04/11 04:24:07;;;;;;;19.30;14.70;;;;;;;6.61;100.00;100003.55;110311;1275;22891;-68
2023/04/11 04:27:09;;;;;;;20.00;14.00;;;;;;;6.75;100.00;100002.44;110259;1272;22212;-68
2023/04/11 04:29:46;;;;;;;17.40;14.30;;;;;;;6.87;100.00;99991.26;110269;1270;22360;-68
2023/04/11 04:32:27;;;;;;;19.50;13.90;;;;;;;6.99;100.00;99983.46;110307;1275;22325;-68
2023/04/11 04:35:01;;;;;;;21.80;13.70;;;;;;;7.10;100.00;99977.68;110363;1269;22357;-68
2023/04/11 04:37:38;;;;;;;22.20;13.60;;;;;;;7.22;100.00;99969.01;109970;1275;22534;-68
2023/04/11 04:40:38;;;;;;;16.90;13.40;;;;;;;7.43;100.00;99961.93;107425;1275;23358;-68
2023/04/11 04:43:17;;;;;;;18.90;12.90;;;;;;;7.58;100.00;99951.02;107476;1275;22551;-68
2023/04/11 04:45:53;;;;;;;22.30;13.00;;;;;;;7.73;100.00;99941.08;107662;1275;24372;-68
2023/04/11 04:48:26;;;;;;;19.10;13.80;;;;;;;7.81;100.00;99936.11;107291;1270;23702;-68
2023/04/11 04:50:54;;;;;;;21.70;13.60;;;;;;;7.95;100.00;99926.15;107349;1275;22517;-68
2023/04/11 04:53:26;;;;;;;17.00;12.70;;;;;;;8.11;100.00;99920.73;107741;1273;26167;-68
2023/04/11 04:55:57;;;;;;;18.20;13.60;;;;;;;8.21;100.00;99915.39;107852;1269;25310;-67
2023/04/11 04:58:27;;;;;;;18.90;13.20;;;;;;;8.30;100.00;99910.34;107494;1271;25354;-67
2023/04/11 05:00:57;;;;;;;16.70;13.00;;;;;;;8.43;100.00;99904.09;107714;1269;22924;-67
2023/04/11 05:03:29;;;;;;;20.30;13.60;;;;;;;8.55;100.00;99896.79;107647;1270;25359;-67
2023/04/11 05:05:58;;;;;;;20.30;13.80;;;;;;;8.65;100.00;99889.19;108074;1272;22635;-68
2023/04/11 05:08:33;;;;;;;18.70;13.80;;;;;;;8.77;100.00;99885.84;107629;1268;26030;-68
2023/04/11 05:11:02;;;;;;;19.80;14.30;;;;;;;8.91;100.00;99877.79;107522;1275;23774;-67
2023/04/11 05:13:32;;;;;;;17.30;13.10;;;;;;;9.06;100.00;99873.95;107373;1269;22707;-67
2023/04/11 05:16:03;;;;;;;17.00;13.10;;;;;;;9.20;100.00;99869.63;107474;1269;23449;-67
2023/04/11 05:18:32;;;;;;;17.40;13.90;;;;;;;9.34;100.00;99870.05;107794;1270;23982;-67
2023/04/11 05:21:00;;;;;;;17.70;13.70;;;;;;;9.41;100.00;99863.27;107548;1269;24187;-66
2023/04/11 05:23:34;;;;;;;19.70;13.40;;;;;;;9.53;100.00;99862.30;107538;1275;23387;-67
2023/04/11 05:26:06;;;;;;;16.30;13.30;;;;;;;9.60;100.00;99858.06;110403;1275;22365;-67
2023/04/11 05:28:34;;;;;;;17.50;12.70;;;;;;;9.68;100.00;99846.63;110357;1270;22429;-67
2023/04/11 05:31:07;;;;;;;17.80;12.80;;;;;;;9.79;100.00;99851.96;110249;1270;22233;-70
2023/04/11 05:33:39;;;;;;;20.40;13.30;;;;;;;9.92;100.00;99847.64;110319;1270;22810;-70
2023/04/11 05:36:12;;;;;;;18.50;13.20;;;;;;;10.06;100.00;99843.34;110355;1276;22190;-70
2023/04/11 05:38:42;;;;;;;20.10;12.80;;;;;;;10.17;100.00;99840.10;110232;1276;22223;-70
2023/04/11 05:41:10;;;;;;;15.00;12.90;;;;;;;10.28;100.00;99834.32;110393;1276;22665;-70
2023/04/11 05:43:39;;;;;;;16.30;12.40;;;;;;;10.42;100.00;99828.10;110388;1276;22225;-70
2023/04/11 05:46:09;;;;;;;15.00;12.00;;;;;;;10.53;100.00;99822.69;110286;1276;22278;-70
2023/04/11 05:48:38;;;;;;;15.80;12.90;;;;;;;10.61;100.00;99823.89;110283;1276;22312;-69
2023/04/11 05:51:08;;;;;;;14.60;12.40;;;;;;;10.70;100.00;99821.40;110394;1276;22281;-70
2023/04/11 05:53:37;;;;;;;14.50;12.00;;;;;;;10.74;100.00;99817.88;110360;1276;23014;-69
2023/04/11 05:56:05;;;;;;;17.00;11.60;;;;;;;10.90;100.00;99818.11;110408;1276;22418;-70
2023/04/11 05:58:35;;;;;;;17.00;12.20;;;;;;;11.07;100.00;99818.98;110351;1276;22189;-69
2023/04/11 06:01:06;;;;;;;14.80;11.40;;;;;;;11.24;100.00;99816.84;110102;1276;350029;-69
2023/04/11 06:04:39;;;;;;;15.20;11.20;;;;;;;11.41;100.00;99800.03;104104;1308;545892;-69
2023/04/11 06:07:08;;;;;;;16.50;11.30;;;;;;;11.48;100.00;99806.60;109401;1290;22383;-67
2023/04/11 06:09:38;;;;;;;24.60;12.20;;;;;;;11.56;100.00;99802.88;109386;1291;23142;-67
2023/04/11 06:12:07;;;;;;;15.40;11.60;;;;;;;11.63;100.00;99802.21;109255;1291;23253;-67
2023/04/11 06:14:35;;;;;;;16.50;10.70;;;;;;;11.73;100.00;99802.54;109391;1291;22289;-68
2023/04/11 06:17:08;;;;;;;14.00;10.90;;;;;;;11.88;100.00;99803.58;109308;1291;23035;-67
2023/04/11 06:19:37;;;;;;;15.50;11.50;;;;;;;12.03;100.00;99809.09;109371;1288;22419;-65
2023/04/11 06:22:05;;;;;;;15.00;11.90;;;;;;;12.17;100.00;99803.90;109672;1287;23268;-67
2023/04/11 06:24:37;;;;;;;12.80;10.60;;;;;;;12.26;100.00;99799.91;109624;1288;22272;-67
2023/04/11 06:27:08;;;;;;;19.50;11.20;;;;;;;12.35;100.00;99797.73;109679;1287;22186;-66
2023/04/11 06:29:37;;;;;;;16.00;11.10;;;;;;;12.47;100.00;99794.60;109534;1288;22939;-67
2023/04/11 06:32:06;;;;;;;16.60;11.00;;;;;;;12.60;100.00;99792.40;109509;1288;22434;-67
2023/04/11 06:34:39;;;;;;;16.90;10.60;;;;;;;12.72;100.00;99792.54;109495;1288;22297;-67
2023/04/11 06:37:08;;;;;;;13.70;11.20;;;;;;;12.81;100.00;99791.41;109458;1286;23049;-69
2023/04/11 06:39:36;;;;;;;15.50;11.10;;;;;;;12.91;100.00;99788.34;109935;1281;22280;-71
2023/04/11 06:42:05;;;;;;;15.70;10.60;;;;;;;13.01;100.00;99785.30;109842;1281;22919;-71
2023/04/11 06:44:34;;;;;;;15.20;10.60;;;;;;;13.11;100.00;99788.69;109924;1282;22928;-70
2023/04/11 06:47:03;;;;;;;13.60;10.20;;;;;;;13.26;100.00;99788.83;109840;1281;23092;-70
2023/04/11 06:49:32;;;;;;;12.80;8.90;;;;;;;13.44;100.00;99781.65;107077;1281;25350;-69
2023/04/11 06:52:02;;;;;;;14.10;9.30;;;;;;;13.60;100.00;99778.04;107169;1280;22545;-69
2023/04/11 06:54:32;;;;;;;12.30;9.50;;;;;;;13.71;100.00;99769.64;107029;1281;23429;-69
2023/04/11 06:57:01;;;;;;;13.70;9.60;;;;;;;13.80;100.00;99767.13;107072;1281;22573;-69
2023/04/11 06:59:35;;;;;;;14.90;9.00;;;;;;;13.84;100.00;99766.36;107189;1281;24369;-69
2023/04/11 07:02:04;;;;;;;12.50;8.30;;;;;;;13.84;100.00;99763.98;107292;1281;24367;-70
2023/04/11 07:04:32;;;;;;;12.30;8.90;;;;;;;13.85;100.00;99764.22;107240;1281;22916;-70
2023/04/11 07:07:10;;;;;;;12.80;8.90;;;;;;;13.95;100.00;99763.38;107067;1281;23386;-69
2023/04/11 07:09:42;;;;;;;10.00;7.60;;;;;;;14.03;100.00;99766.47;107060;1281;25361;-71
2023/04/11 07:12:11;;;;;;;11.20;7.70;;;;;;;14.13;100.00;99762.48;107094;1281;23897;-71
2023/04/11 07:14:48;;;;;;;12.60;7.70;;;;;;;14.23;100.00;99754.03;106844;1282;26274;-70
2023/04/11 07:17:20;;;;;;;10.80;6.90;;;;;;;14.26;100.00;99753.11;106803;1282;25356;-70
2023/04/11 07:19:48;;;;;;;11.20;7.50;;;;;;;14.27;100.00;99742.10;108272;1282;25413;-70
2023/04/11 07:22:17;;;;;;;12.70;7.50;;;;;;;14.25;100.00;99740.64;106883;1282;22657;-70
2023/04/11 07:24:50;;;;;;;12.10;6.90;;;;;;;14.24;100.00;99742.20;106886;1282;22530;-71
2023/04/11 07:27:20;;;;;;;10.60;7.50;;;;;;;14.33;100.00;99739.94;106696;1282;25184;-70
2023/04/11 07:29:49;;;;;;;12.30;6.60;;;;;;;14.40;100.00;99736.94;106837;1282;22528;-70
2023/04/11 07:32:17;;;;;;;10.40;6.70;;;;;;;14.44;100.00;99730.30;106954;1282;23262;-70
2023/04/11 07:34:45;;;;;;;16.10;7.20;;;;;;;14.44;100.00;99723.80;106946;1282;22555;-70
2023/04/11 07:37:15;;;;;;;9.00;6.80;;;;;;;14.46;100.00;99726.84;106928;1282;23296;-70
2023/04/11 07:39:43;;;;;;;10.90;5.90;;;;;;;14.55;100.00;99723.58;106988;1282;23917;-71
2023/04/11 07:42:12;;;;;;;8.70;6.00;;;;;;;14.71;100.00;99718.05;107046;1282;25325;-70
2023/04/11 07:44:41;;;;;;;9.10;5.70;;;;;;;14.87;100.00;99717.19;107063;1282;22697;-70
2023/04/11 07:47:09;;;;;;;8.60;6.00;;;;;;;14.97;100.00;99706.98;106964;1282;22543;-71
2023/04/11 07:49:38;;;;;;;9.70;5.60;;;;;;;15.07;100.00;99701.76;106878;1282;22688;-70
2023/04/11 07:52:06;;;;;;;9.50;5.70;;;;;;;15.23;100.00;99699.42;107042;1282;22765;-70
2023/04/11 07:54:36;;;;;;;8.50;5.10;;;;;;;15.37;100.00;99699.58;106902;1282;24271;-71
2023/04/11 07:57:05;;;;;;;7.90;4.60;;;;;;;15.40;100.00;99694.15;106853;1282;23106;-70
2023/04/11 07:59:39;;;;;;;8.30;4.80;;;;;;;15.42;100.00;99683.45;106877;1282;22588;-70
2023/04/11 08:02:08;;;;;;;7.10;4.80;;;;;;;15.46;100.00;99681.03;106981;1282;23019;-71
2023/04/11 08:04:37;;;;;;;9.90;4.70;;;;;;;15.57;100.00;99683.30;107012;1282;25337;-70
2023/04/11 08:07:05;;;;;;;7.30;4.50;;;;;;;15.57;100.00;99678.09;106931;1282;23294;-70
2023/04/11 08:09:35;;;;;;;10.00;4.90;;;;;;;15.50;100.00;99675.39;107233;1282;26136;-71
2023/04/11 08:12:05;;;;;;;8.00;4.80;;;;;;;15.57;100.00;99676.50;106901;1282;22970;-71
2023/04/11 08:14:35;;;;;;;8.10;4.40;;;;;;;15.66;100.00;99676.96;106884;1282;23577;-69
2023/04/11 08:17:04;;;;;;;9.00;4.80;;;;;;;15.84;100.00;99672.17;107097;1275;25303;-69
2023/04/11 08:19:44;;;;;;;12.30;5.20;;;;;;;15.97;100.00;99661.65;106980;1282;24238;-69
2023/04/11 08:22:16;;;;;;;7.60;4.50;;;;;;;15.98;100.00;99661.73;106792;1282;22512;-69
2023/04/11 08:24:45;;;;;;;9.60;4.90;;;;;;;15.97;100.00;99651.27;106957;1282;25300;-71
2023/04/11 08:27:13;;;;;;;8.00;4.50;;;;;;;15.96;100.00;99653.69;107020;1282;22528;-71
2023/04/11 08:29:41;;;;;;;9.00;5.10;;;;;;;16.05;100.00;99649.92;107125;1281;25439;-70
2023/04/11 08:32:09;;;;;;;8.30;4.60;;;;;;;16.18;100.00;99657.42;109829;1276;22232;-71
2023/04/11 08:34:38;;;;;;;7.20;4.60;;;;;;;16.28;100.00;99649.99;109905;1282;22389;-72
2023/04/11 08:37:06;;;;;;;7.50;4.40;;;;;;;16.33;100.00;99640.79;109884;1281;22466;-72
2023/04/11 08:39:34;;;;;;;8.50;4.40;;;;;;;16.35;100.00;99642.00;109892;1282;22216;-71
2023/04/11 08:42:03;;;;;;;10.90;4.70;;;;;;;16.31;100.00;99632.17;109774;1281;22423;-70
2023/04/11 08:44:32;;;;;;;11.00;4.70;;;;;;;16.24;100.00;99630.52;109858;1282;22972;-70
2023/04/11 08:47:01;;;;;;;9.20;5.20;;;;;;;16.22;100.00;99629.75;109903;1282;22275;-70
2023/04/11 08:49:29;;;;;;;9.80;6.30;;;;;;;16.25;100.00;99625.45;109752;1282;23067;-70
2023/04/11 08:51:58;;;;;;;9.30;4.50;;;;;;;16.29;100.00;99622.27;109911;1282;22330;-71
2023/04/11 08:54:27;;;;;;;7.30;5.20;;;;;;;16.20;100.00;99615.52;109837;1283;22259;-70
2023/04/11 08:56:55;;;;;;;26.40;20.50;;;;;;;16.18;100.00;99612.05;109897;1282;22214;-70
2023/04/11 08:59:26;;;;;;;10.20;6.30;;;;;;;16.28;100.00;99611.15;109874;1282;22227;-70
2023/04/11 09:02:05;;;;;;;24.90;20.60;;;;;;;16.29;100.00;99611.55;109878;1282;22312;-70
2023/04/11 09:04:40;;;;;;;38.50;26.00;;;;;;;16.34;100.00;99607.55;109887;1282;22290;-70
2023/04/11 09:07:10;;;;;;;15.40;9.50;;;;;;;16.41;100.00;99600.61;109897;1282;22368;-71
2023/04/11 09:09:39;;;;;;;7.90;5.20;;;;;;;16.48;100.00;99602.52;109900;1282;22248;-70
2023/04/11 09:12:13;;;;;;;9.70;5.00;;;;;;;16.48;100.00;99592.63;109879;1282;22437;-70
2023/04/11 09:14:41;;;;;;;8.40;4.90;;;;;;;16.44;100.00;99585.79;109908;1282;23041;-71
2023/04/11 09:17:13;;;;;;;7.10;4.40;;;;;;;16.46;100.00;99585.80;109887;1282;23098;-70
2023/04/11 09:19:41;;;;;;;6.90;4.30;;;;;;;16.55;100.00;99583.88;109906;1282;22409;-70
2023/04/11 09:22:11;;;;;;;8.10;5.90;;;;;;;16.54;100.00;99575.35;109903;1282;22392;-71
2023/04/11 09:24:39;;;;;;;8.70;4.40;;;;;;;16.43;100.00;99575.44;109881;1282;22886;-70
2023/04/11 09:27:15;;;;;;;7.70;4.70;;;;;;;16.30;100.00;99570.55;109892;1282;22294;-71
2023/04/11 09:29:46;;;;;;;7.50;4.70;;;;;;;16.12;100.00;99571.71;106976;1282;24349;-70
2023/04/11 09:32:28;;;;;;;10.70;4.40;;;;;;;15.98;100.00;99564.59;106845;1282;22642;-69
2023/04/11 09:35:10;;;;;;;7.50;4.40;;;;;;;15.83;100.00;99557.65;106705;1282;25464;-69
2023/04/11 09:37:48;;;;;;;7.00;4.00;;;;;;;15.71;100.00;99555.75;107075;1282;25350;-69
2023/04/11 09:40:20;;;;;;;10.00;4.30;;;;;;;15.67;100.00;99548.32;107053;1282;22732;-70
2023/04/11 09:42:48;;;;;;;7.90;4.30;;;;;;;15.62;100.00;99548.86;107015;1282;22666;-71
2023/04/11 09:45:21;;;;;;;10.30;4.50;;;;;;;15.56;100.00;99548.84;107029;1282;25437;-69
2023/04/11 09:47:52;;;;;;;9.00;4.20;;;;;;;15.55;100.00;99547.45;107081;1282;23469;-70
2023/04/11 09:50:21;;;;;;;9.80;4.20;;;;;;;15.56;100.00;99539.95;107017;1282;23425;-69
2023/04/11 09:52:51;;;;;;;7.70;4.50;;;;;;;15.58;100.00;99540.55;106820;1282;23256;-70
2023/04/11 09:55:21;;;;;;;8.10;4.10;;;;;;;15.65;100.00;99537.88;106801;1282;22525;-70
2023/04/11 09:57:50;;;;;;;8.00;4.40;;;;;;;15.75;100.00;99534.09;106897;1282;22539;-70
2023/04/11 10:00:20;;;;;;;7.60;4.00;;;;;;;15.86;100.00;99538.86;107083;1282;24978;-70
2023/04/11 10:02:54;;;;;;;9.00;4.70;;;;;;;15.91;100.00;99533.02;109890;1282;22221;-70
2023/04/11 10:05:26;;;;;;;6.00;4.00;;;;;;;15.87;100.00;99533.02;109862;1282;23104;-71
2023/04/11 10:08:15;;;;;;;6.60;4.30;;;;;;;15.85;100.00;99527.84;109913;1282;22771;-70
2023/04/11 10:10:44;;;;;;;9.20;3.90;;;;;;;15.82;100.00;99523.36;109878;1282;22324;-70
2023/04/11 10:13:49;;;;;;;11.40;4.80;;;;;;;15.81;100.00;99522.19;109893;1282;22331;-70
2023/04/11 10:16:19;;;;;;;10.20;5.00;;;;;;;15.84;100.00;99520.15;109687;1282;22230;-70
2023/04/11 10:18:51;;;;;;;7.60;4.70;;;;;;;15.74;100.00;99513.61;109892;1282;22949;-71
2023/04/11 10:21:26;;;;;;;13.20;5.20;;;;;;;15.72;100.00;99513.30;109882;1282;22285;-70
2023/04/11 10:24:14;;;;;;;7.50;4.60;;;;;;;15.73;100.00;99501.69;109868;1282;22469;-71
2023/04/11 10:26:47;;;;;;;8.10;4.40;;;;;;;15.63;100.00;99502.25;107220;1280;22551;-69
2023/04/11 10:29:39;;;;;;;7.50;4.90;;;;;;;15.63;100.00;99498.48;107192;1280;22566;-69
2023/04/11 10:32:12;;;;;;;10.40;4.80;;;;;;;15.72;100.00;99498.27;107247;1280;22675;-70
2023/04/11 10:34:53;;;;;;;8.70;4.90;;;;;;;15.70;100.00;99490.33;107105;1280;25322;-69
2023/04/11 10:37:34;;;;;;;8.30;5.00;;;;;;;15.63;100.00;99486.56;107056;1280;25441;-69
2023/04/11 10:40:07;;;;;;;9.30;4.90;;;;;;;15.54;100.00;99481.23;107009;1280;25523;-70
2023/04/11 10:42:43;;;;;;;12.40;5.10;;;;;;;15.52;100.00;99481.52;107331;1277;22906;-70
2023/04/11 10:45:28;;;;;;;11.00;4.70;;;;;;;15.52;100.00;99474.92;107446;1277;22534;-69
2023/04/11 10:48:04;;;;;;;10.40;5.10;;;;;;;15.53;100.00;99471.31;107190;1277;22556;-70
2023/04/11 10:50:36;;;;;;;;;;;;;;;15.53;100.00;99465.73;107202;1277;25310;-70
2023/04/11 10:53:06;;;;;;;8.30;4.50;;;;;;;15.54;100.00;99462.64;107266;1277;22679;-69
2023/04/11 10:55:43;;;;;;;9.60;4.30;;;;;;;15.62;100.00;99464.10;107292;1277;24377;-70
2023/04/11 10:58:18;;;;;;;11.30;4.10;;;;;;;15.72;100.00;99462.80;110231;1277;22198;-70
2023/04/11 11:00:50;;;;;;;8.80;3.70;;;;;;;15.78;100.00;99456.72;110249;1277;22194;-70
2023/04/11 11:03:23;;;;;;;6.90;3.80;;;;;;;15.83;100.00;99452.85;110221;1277;22401;-70
2023/04/11 11:05:57;;;;;;;8.30;3.80;;;;;;;15.89;100.00;99450.89;110231;1277;22204;-70
2023/04/11 11:08:32;;;;;;;7.60;4.10;;;;;;;15.98;100.00;99448.85;110217;1277;22285;-70
2023/04/11 11:11:01;;;;;;;7.90;3.90;;;;;;;16.01;100.00;99450.21;110046;1277;23120;-71
2023/04/11 11:13:39;;;;;;;8.90;4.20;;;;;;;15.93;100.00;99446.55;110227;1277;22254;-70
2023/04/11 11:16:08;;;;;;;9.50;3.70;;;;;;;15.89;100.00;99443.15;110037;1277;22217;-70
2023/04/11 11:18:49;;;;;;;7.60;3.90;;;;;;;15.86;100.00;99445.33;110056;1277;22201;-70
2023/04/11 11:21:19;;;;;;;10.50;4.00;;;;;;;15.89;100.00;99438.80;110235;1277;22931;-70
2023/04/11 11:23:59;;;;;;;8.50;3.70;;;;;;;15.93;100.00;99442.23;110223;1277;22172;-70
2023/04/11 11:26:40;;;;;;;9.70;4.10;;;;;;;15.95;100.00;99439.10;110218;1277;22216;-71